Time;durP1;ratioP1;P1;durP2;ratioP2;P2;SDS_P1;SDS_P2;PMS_P1;PMS_P2;Temp;Humidity;BMP_temperature;BMP_pressure;BME280_temperature;BME280_humidity;BME280_pressure;Samples;Min_cycle;Max_cycle;Signal;HPM_P1;HPM_P2
2021/07/18 00:01:05;;;;;;;13.85;9.43;;;;;;;20.76;98.36;96493.25;5000276;28;20437;-88
2021/07/18 00:03:31;;;;;;;17.10;9.32;;;;;;;20.73;98.53;96493.63;5016148;28;20052;-88
2021/07/18 00:05:57;;;;;;;13.77;10.05;;;;;;;20.71;97.16;96496.53;5016545;28;20025;-89
2021/07/18 00:08:22;;;;;;;18.08;10.63;;;;;;;20.64;98.63;96501.00;4997014;28;20133;-88
2021/07/18 00:10:49;;;;;;;17.67;11.07;;;;;;;20.59;98.60;96508.00;5004697;28;20033;-88
2021/07/18 00:13:15;;;;;;;26.10;11.05;;;;;;;20.55;99.04;96499.38;4992093;28;20026;-88
2021/07/18 00:15:40;;;;;;;19.80;11.00;;;;;;;20.51;99.32;96500.78;5015978;28;20546;-88
2021/07/18 00:18:06;;;;;;;15.65;10.38;;;;;;;20.50;99.52;96508.09;5016083;28;20044;-88
2021/07/18 00:20:32;;;;;;;17.98;11.43;;;;;;;20.43;100.00;96507.09;5015995;28;20508;-87
2021/07/18 00:22:57;;;;;;;20.60;10.77;;;;;;;20.44;99.48;96511.53;5015776;28;20022;-88
2021/07/18 00:25:24;;;;;;;20.58;11.70;;;;;;;20.39;99.88;96502.25;4996332;28;20037;-88
2021/07/18 00:27:49;;;;;;;19.13;11.70;;;;;;;20.35;100.00;96501.75;5008636;28;20033;-88
2021/07/18 00:30:15;;;;;;;21.80;11.57;;;;;;;20.30;100.00;96503.31;5015812;28;20408;-88
2021/07/18 00:32:42;;;;;;;17.85;10.77;;;;;;;20.34;100.00;96504.63;4997520;28;20473;-87
2021/07/18 00:35:08;;;;;;;18.38;11.60;;;;;;;20.37;100.00;96504.28;4999354;28;20505;-87
2021/07/18 00:37:33;;;;;;;19.33;11.65;;;;;;;20.32;100.00;96504.81;5006180;28;20061;-87
2021/07/18 00:39:59;;;;;;;22.20;11.70;;;;;;;20.33;100.00;96501.06;4999027;28;20112;-87
2021/07/18 00:42:25;;;;;;;19.67;10.55;;;;;;;20.33;100.00;96502.97;4995620;28;20038;-88
2021/07/18 00:44:50;;;;;;;17.17;10.77;;;;;;;20.35;100.00;96496.31;4995578;28;20061;-87
2021/07/18 00:47:16;;;;;;;24.55;11.10;;;;;;;20.38;100.00;96505.97;5032938;28;20559;-87
2021/07/18 00:49:41;;;;;;;18.58;10.77;;;;;;;20.28;100.00;96506.19;5006881;28;20030;-84
2021/07/18 00:52:07;;;;;;;24.70;11.85;;;;;;;20.13;100.00;96510.69;5010246;28;20028;-87
2021/07/18 00:54:34;;;;;;;22.10;10.00;;;;;;;20.10;100.00;96504.78;4995374;28;20057;-87
2021/07/18 00:57:00;;;;;;;18.30;11.30;;;;;;;20.11;100.00;96510.03;4979494;28;20026;-88
2021/07/18 00:59:26;;;;;;;15.75;8.48;;;;;;;20.01;99.88;96503.97;4991705;28;20044;-87
2021/07/18 01:01:52;;;;;;;13.05;8.93;;;;;;;19.97;100.00;96495.34;4992124;28;20029;-88
2021/07/18 01:04:18;;;;;;;17.95;10.32;;;;;;;19.93;100.00;96491.28;4998769;28;20029;-87
2021/07/18 01:06:44;;;;;;;18.02;9.63;;;;;;;19.87;100.00;96489.28;5014467;28;20044;-87
2021/07/18 01:09:09;;;;;;;14.45;10.70;;;;;;;19.84;100.00;96503.22;4998548;28;20033;-87
2021/07/18 01:11:35;;;;;;;17.92;10.70;;;;;;;19.76;100.00;96495.13;5006082;28;20486;-87
2021/07/18 01:14:00;;;;;;;16.95;11.00;;;;;;;19.79;100.00;96494.78;4979229;28;20057;-87
2021/07/18 01:16:26;;;;;;;24.45;10.65;;;;;;;19.74;100.00;96491.75;4979327;28;20041;-87
2021/07/18 01:18:52;;;;;;;18.05;10.95;;;;;;;19.72;100.00;96499.22;5011267;28;20120;-87
2021/07/18 01:21:22;;;;;;;19.73;10.18;;;;;;;19.75;100.00;96493.44;4995283;28;20496;-87
2021/07/18 01:23:48;;;;;;;18.98;10.18;;;;;;;19.75;100.00;96496.13;4980950;28;20481;-87
2021/07/18 01:26:13;;;;;;;22.70;10.73;;;;;;;19.72;100.00;96493.78;4998824;28;20045;-87
2021/07/18 01:28:39;;;;;;;17.80;9.93;;;;;;;19.75;100.00;96498.03;4998265;28;20027;-87
2021/07/18 01:31:06;;;;;;;17.48;9.65;;;;;;;19.67;100.00;96490.75;4998119;28;20032;-87
2021/07/18 01:33:32;;;;;;;21.27;10.23;;;;;;;19.60;100.00;96500.63;5006671;28;20413;-87
2021/07/18 01:35:58;;;;;;;13.90;10.40;;;;;;;19.55;100.00;96502.19;4978509;28;20026;-87
2021/07/18 01:38:23;;;;;;;18.73;10.07;;;;;;;19.54;100.00;96500.47;4994948;28;20034;-87
2021/07/18 01:40:49;;;;;;;16.50;9.35;;;;;;;19.60;100.00;96503.34;5012685;28;20489;-87
2021/07/18 01:43:16;;;;;;;19.50;9.45;;;;;;;19.61;100.00;96501.47;5014334;28;20409;-88
2021/07/18 01:45:42;;;;;;;13.63;9.02;;;;;;;19.53;100.00;96502.38;4997811;28;20191;-86
2021/07/18 01:48:07;;;;;;;15.00;8.75;;;;;;;19.56;100.00;96493.88;4985728;28;20570;-87
2021/07/18 01:50:33;;;;;;;11.30;8.50;;;;;;;19.59;100.00;96498.94;4994603;28;20025;-86
2021/07/18 01:52:59;;;;;;;19.58;8.07;;;;;;;19.56;97.43;96493.03;4981021;28;20055;-87
2021/07/18 01:55:25;;;;;;;18.63;8.10;;;;;;;19.49;98.32;96495.59;4991886;28;20022;-87
2021/07/18 01:57:51;;;;;;;15.73;8.32;;;;;;;19.41;100.00;96490.22;4987739;28;20489;-86
2021/07/18 02:00:17;;;;;;;10.10;7.10;;;;;;;19.39;99.98;96493.09;4989778;28;20116;-87
2021/07/18 02:02:47;;;;;;;17.85;8.73;;;;;;;19.37;100.00;96492.41;4997237;28;20025;-87
2021/07/18 02:05:14;;;;;;;17.88;8.50;;;;;;;19.35;100.00;96493.56;5012040;28;20022;-87
2021/07/18 02:07:40;;;;;;;14.70;8.40;;;;;;;19.28;100.00;96492.59;4978503;28;20030;-87
2021/07/18 02:10:06;;;;;;;10.73;8.40;;;;;;;19.26;100.00;96497.31;4997950;28;20084;-87
2021/07/18 02:12:35;;;;;;;13.65;8.75;;;;;;;19.25;100.00;96491.09;4999325;28;20413;-87
2021/07/18 02:15:01;;;;;;;15.25;8.38;;;;;;;19.24;100.00;96493.94;5011056;28;20083;-86
2021/07/18 02:17:26;;;;;;;15.45;8.05;;;;;;;19.16;100.00;96499.41;4994205;28;20030;-86
2021/07/18 02:19:52;;;;;;;16.88;7.88;;;;;;;19.13;100.00;96502.47;4995195;28;20486;-86
2021/07/18 02:22:44;;;;;;;15.52;7.40;;;;;;;19.07;100.00;96504.00;4994746;28;20021;-87
2021/07/18 02:25:12;;;;;;;10.20;7.13;;;;;;;19.00;100.00;96515.72;5005893;28;20382;-87
2021/07/18 02:27:37;;;;;;;12.98;7.05;;;;;;;18.99;100.00;96508.59;4981883;28;20041;-87
2021/07/18 02:30:24;;;;;;;13.90;7.00;;;;;;;18.89;99.97;96517.75;5000741;28;20029;-86
2021/07/18 02:32:51;;;;;;;16.05;6.57;;;;;;;18.90;99.14;96514.03;5000748;28;20091;-85
2021/07/18 02:35:18;;;;;;;17.60;6.78;;;;;;;18.87;98.05;96525.22;5001069;28;20087;-86
2021/07/18 02:37:44;;;;;;;9.50;6.63;;;;;;;18.85;98.25;96521.84;5017400;28;20057;-87
2021/07/18 02:40:11;;;;;;;11.88;6.97;;;;;;;18.88;96.35;96516.06;5000647;28;20095;-87
2021/07/18 02:42:37;;;;;;;12.85;6.40;;;;;;;18.84;97.06;96520.13;5017496;28;20021;-86
2021/07/18 02:45:23;;;;;;;11.13;6.45;;;;;;;18.83;97.08;96523.00;5000767;28;20164;-87
2021/07/18 02:47:49;;;;;;;8.30;6.55;;;;;;;18.79;98.72;96527.94;5000901;28;20021;-87
2021/07/18 02:50:17;;;;;;;13.77;6.80;;;;;;;18.75;99.91;96523.03;5000721;28;20492;-87
2021/07/18 02:52:43;;;;;;;10.55;7.20;;;;;;;18.72;100.00;96532.34;5001514;28;20033;-87
2021/07/18 02:55:09;;;;;;;9.68;6.88;;;;;;;18.78;100.00;96537.06;4997564;28;20033;-87
2021/07/18 02:57:35;;;;;;;8.85;6.78;;;;;;;18.81;99.42;96539.44;4997702;28;20397;-87
2021/07/18 03:00:10;;;;;;;9.57;6.80;;;;;;;18.82;99.49;96546.56;4989448;28;20042;-87
2021/07/18 03:02:35;;;;;;;12.30;7.03;;;;;;;18.72;100.00;96554.00;4997366;28;20406;-88
2021/07/18 03:05:01;;;;;;;14.50;6.35;;;;;;;18.59;100.00;96548.25;4997499;28;20092;-86
2021/07/18 03:07:27;;;;;;;14.70;6.45;;;;;;;18.57;100.00;96544.88;4997541;28;20112;-81
2021/07/18 03:09:52;;;;;;;10.30;7.00;;;;;;;18.55;100.00;96549.59;4997133;28;20034;-77
2021/07/18 03:12:18;;;;;;;13.70;6.47;;;;;;;18.60;100.00;96563.50;4996056;28;20033;-76
2021/07/18 03:14:44;;;;;;;68.65;8.30;;;;;;;18.63;100.00;96565.00;4996565;28;20125;-76
2021/07/18 03:17:10;;;;;;;10.18;6.72;;;;;;;18.72;99.01;96564.84;5004417;28;20060;-77
2021/07/18 03:19:35;;;;;;;14.85;6.93;;;;;;;18.72;99.62;96564.84;4996018;28;20053;-76
2021/07/18 03:22:01;;;;;;;18.15;7.07;;;;;;;18.71;99.57;96568.56;4979857;28;20120;-76
2021/07/18 03:24:27;;;;;;;12.70;7.28;;;;;;;18.80;99.54;96566.69;5009707;28;20090;-86
2021/07/18 03:26:53;;;;;;;11.75;7.47;;;;;;;18.92;97.81;96571.59;5016657;28;20473;-89
2021/07/18 03:29:18;;;;;;;9.25;6.75;;;;;;;18.97;96.82;96581.09;4989052;28;20026;-88
2021/07/18 03:31:44;;;;;;;17.73;7.00;;;;;;;18.97;97.14;96572.97;5000211;28;20151;-86
2021/07/18 03:34:09;;;;;;;13.50;6.57;;;;;;;19.05;95.22;96587.34;5000004;28;20508;-86
2021/07/18 03:36:35;;;;;;;11.20;6.05;;;;;;;19.06;93.93;96585.50;5016515;28;20018;-86
2021/07/18 03:39:00;;;;;;;13.98;6.10;;;;;;;19.14;93.53;96580.91;4999868;28;20516;-85
2021/07/18 03:41:26;;;;;;;8.85;6.18;;;;;;;19.20;93.19;96580.22;5000024;28;20029;-85
2021/07/18 03:43:53;;;;;;;10.80;5.78;;;;;;;19.33;92.25;96595.97;4999941;28;20488;-83
2021/07/18 03:46:18;;;;;;;18.52;7.10;;;;;;;19.36;94.03;96595.63;4987931;28;20030;-87
2021/07/18 03:48:44;;;;;;;12.57;6.70;;;;;;;19.38;93.75;96593.59;4989658;28;20029;-82
2021/07/18 03:51:10;;;;;;;21.35;7.68;;;;;;;19.21;94.50;96595.47;4995660;28;20088;-83
2021/07/18 03:53:35;;;;;;;15.77;8.07;;;;;;;19.19;95.31;96602.94;4995637;28;20030;-84
2021/07/18 03:56:01;;;;;;;9.93;7.82;;;;;;;19.36;95.02;96603.75;4992990;28;20417;-80
2021/07/18 03:58:26;;;;;;;21.15;9.02;;;;;;;19.34;95.66;96609.38;4980043;28;20088;-84
2021/07/18 04:00:52;;;;;;;18.27;8.90;;;;;;;19.35;95.32;96604.75;4989672;28;20025;-81
2021/07/18 04:03:17;;;;;;;20.63;8.63;;;;;;;19.38;95.56;96604.44;4993412;28;20481;-81
2021/07/18 04:05:43;;;;;;;37.65;9.43;;;;;;;19.36;95.38;96610.03;5000577;28;20031;-79
2021/07/18 04:08:08;;;;;;;36.47;10.52;;;;;;;19.44;95.51;96614.63;4992809;28;20033;-85
2021/07/18 04:10:34;;;;;;;155.70;13.52;;;;;;;19.60;94.62;96614.56;4976851;28;20112;-83
2021/07/18 04:13:00;;;;;;;22.83;9.80;;;;;;;19.54;94.11;96604.41;4992966;28;20470;-80
2021/07/18 04:15:26;;;;;;;26.30;9.68;;;;;;;19.65;93.69;96623.06;5002003;28;20096;-86
2021/07/18 04:17:52;;;;;;;47.63;26.30;;;;;;;19.62;94.09;96617.97;4979164;28;20042;-86
2021/07/18 04:20:18;;;;;;;16.42;9.38;;;;;;;19.77;93.36;96621.66;4993394;28;20057;-88
2021/07/18 04:22:43;;;;;;;19.15;9.25;;;;;;;19.97;91.47;96624.81;4978534;28;20060;-87
2021/07/18 04:25:10;;;;;;;24.88;10.02;;;;;;;20.10;90.20;96624.25;4996744;28;20041;-86
2021/07/18 04:27:35;;;;;;;24.45;11.55;;;;;;;20.25;89.54;96630.63;4989429;28;20497;-86
2021/07/18 04:30:02;;;;;;;25.98;11.77;;;;;;;20.38;87.95;96628.22;4979303;28;20072;-82
2021/07/18 04:32:28;;;;;;;32.53;12.55;;;;;;;20.54;86.48;96639.00;4986279;28;20025;-82
2021/07/18 04:34:53;;;;;;;28.95;11.55;;;;;;;20.64;83.73;96645.03;4989076;28;20029;-80
2021/07/18 04:37:19;;;;;;;20.75;9.75;;;;;;;20.68;83.04;96643.66;5010601;28;20084;-80
2021/07/18 04:39:44;;;;;;;16.08;10.45;;;;;;;20.75;83.09;96639.19;4993039;28;20064;-82
2021/07/18 04:42:10;;;;;;;19.38;9.27;;;;;;;20.97;81.64;96641.09;4992474;28;20036;-80
2021/07/18 04:44:35;;;;;;;13.45;8.25;;;;;;;21.63;78.38;96651.22;4997284;28;20091;-79
2021/07/18 04:47:01;;;;;;;24.48;10.52;;;;;;;22.14;77.55;96654.97;4995076;28;20025;-80
2021/07/18 04:49:27;;;;;;;14.98;8.57;;;;;;;22.27;76.67;96653.44;4994848;28;20029;-83
2021/07/18 04:51:53;;;;;;;13.85;7.95;;;;;;;22.23;76.15;96646.69;5004503;28;20021;-81
2021/07/18 04:54:19;;;;;;;19.15;9.57;;;;;;;22.18;78.36;96643.69;4981165;28;20037;-80
2021/07/18 04:56:45;;;;;;;17.50;9.48;;;;;;;22.29;77.80;96657.66;5000070;28;20539;-80
2021/07/18 04:59:10;;;;;;;14.60;8.55;;;;;;;22.28;76.83;96641.50;4977541;28;20029;-80
2021/07/18 05:01:36;;;;;;;19.70;9.07;;;;;;;22.41;76.63;96649.84;4981631;28;20508;-81
2021/07/18 05:04:02;;;;;;;15.43;8.32;;;;;;;22.75;75.83;96657.41;4997555;28;20068;-81
2021/07/18 05:06:27;;;;;;;21.90;11.30;;;;;;;23.87;71.46;96651.16;5003771;28;20041;-81
2021/07/18 05:08:53;;;;;;;18.98;10.07;;;;;;;25.74;64.29;96666.00;4983761;28;20030;-81
2021/07/18 05:11:19;;;;;;;27.73;12.57;;;;;;;27.50;58.33;96671.13;4994800;28;20172;-81
2021/07/18 05:13:50;;;;;;;25.00;11.20;;;;;;;28.27;55.16;96681.72;4993341;28;20028;-82
2021/07/18 05:16:16;;;;;;;19.80;12.00;;;;;;;28.15;54.41;96681.59;4986471;28;20525;-82
2021/07/18 05:18:42;;;;;;;27.05;11.40;;;;;;;28.63;53.19;96680.88;4978120;28;20132;-82
2021/07/18 05:21:07;;;;;;;26.33;12.05;;;;;;;28.89;52.48;96675.09;4978288;28;20026;-82
2021/07/18 05:23:33;;;;;;;21.38;12.45;;;;;;;28.46;53.77;96675.13;5002546;28;20108;-82
2021/07/18 05:25:59;;;;;;;29.42;12.40;;;;;;;28.76;52.97;96692.63;4984158;28;20021;-83
2021/07/18 05:28:24;;;;;;;23.95;11.90;;;;;;;30.21;49.13;96694.13;4989333;28;20022;-82
2021/07/18 05:30:50;;;;;;;22.52;11.45;;;;;;;31.42;45.38;96705.16;4997619;28;20513;-82
2021/07/18 05:33:16;;;;;;;23.23;12.27;;;;;;;31.97;43.68;96704.53;5014078;28;20108;-81
2021/07/18 05:35:41;;;;;;;46.00;14.00;;;;;;;32.61;41.82;96706.75;5010650;28;20029;-83
2021/07/18 05:38:07;;;;;;;20.92;14.18;;;;;;;32.44;43.56;96707.84;4978337;28;20033;-82
2021/07/18 05:40:33;;;;;;;76.47;50.33;;;;;;;32.89;42.02;96711.31;5001016;28;20026;-82
2021/07/18 05:42:58;;;;;;;24.65;14.98;;;;;;;33.30;42.00;96709.09;4994200;28;20030;-82
2021/07/18 05:45:24;;;;;;;91.43;11.90;;;;;;;33.47;41.32;96713.47;4977973;28;20040;-84
2021/07/18 05:47:49;;;;;;;15.75;7.82;;;;;;;33.88;38.85;96708.38;4982285;28;20013;-83
2021/07/18 05:50:15;;;;;;;14.77;7.00;;;;;;;34.94;37.26;96706.50;4989261;28;20037;-83
2021/07/18 05:52:41;;;;;;;21.75;6.97;;;;;;;35.20;36.84;96711.09;4995018;28;20033;-83
2021/07/18 05:55:08;;;;;;;22.67;7.25;;;;;;;34.93;35.82;96708.44;5004600;28;20378;-83
2021/07/18 05:57:34;;;;;;;16.42;7.70;;;;;;;35.55;35.37;96714.03;4999385;28;20026;-83
2021/07/18 05:59:59;;;;;;;19.17;8.23;;;;;;;36.29;34.90;96719.22;5001093;28;20405;-82
2021/07/18 06:02:25;;;;;;;12.90;7.38;;;;;;;35.90;35.45;96711.34;4998101;28;20072;-83
2021/07/18 06:04:50;;;;;;;52.20;12.48;;;;;;;34.56;37.86;96713.16;5013707;28;20482;-82
2021/07/18 06:07:17;;;;;;;13.27;8.38;;;;;;;34.43;37.84;96699.72;4997100;28;20521;-82
2021/07/18 06:09:42;;;;;;;37.55;26.88;;;;;;;34.96;37.75;96704.25;5014360;28;20460;-82
2021/07/18 06:12:08;;;;;;;13.10;7.15;;;;;;;36.30;35.32;96699.44;4984222;28;20105;-82
2021/07/18 06:14:34;;;;;;;28.50;12.50;;;;;;;36.77;35.15;96701.09;4982651;28;20492;-82
2021/07/18 06:17:00;;;;;;;18.08;9.75;;;;;;;36.32;35.24;96699.16;4995590;28;20112;-81
2021/07/18 06:19:25;;;;;;;15.65;7.80;;;;;;;35.38;36.40;96699.47;4994306;28;20108;-81
2021/07/18 06:21:51;;;;;;;13.02;7.93;;;;;;;35.77;36.18;96700.75;5000715;28;20021;-82
2021/07/18 06:24:16;;;;;;;18.15;7.65;;;;;;;35.82;36.12;96703.53;5000493;28;20099;-81
2021/07/18 06:26:42;;;;;;;14.20;7.05;;;;;;;37.12;34.19;96692.66;5000514;28;20518;-81
2021/07/18 06:29:08;;;;;;;12.00;7.07;;;;;;;37.20;33.81;96692.06;5011001;28;20040;-81
2021/07/18 06:31:33;;;;;;;16.10;7.60;;;;;;;38.27;32.13;96686.75;4989926;28;20088;-81
2021/07/18 06:33:59;;;;;;;9.75;7.75;;;;;;;38.45;32.69;96686.06;4992490;28;20414;-81
2021/07/18 06:36:24;;;;;;;25.27;8.68;;;;;;;37.20;33.26;96683.69;5008870;28;20026;-81
2021/07/18 06:38:50;;;;;;;19.17;9.43;;;;;;;34.46;37.97;96688.91;4991978;28;20065;-81
2021/07/18 06:41:16;;;;;;;20.50;11.60;;;;;;;34.15;39.04;96693.38;4993746;28;20120;-81
2021/07/18 06:43:41;;;;;;;11.93;7.43;;;;;;;35.21;36.97;96687.75;5005036;28;20040;-82
2021/07/18 06:46:07;;;;;;;8.90;7.43;;;;;;;35.61;35.98;96678.72;5002613;28;20553;-82
2021/07/18 06:48:32;;;;;;;13.85;7.55;;;;;;;35.64;35.62;96678.16;4984108;28;20093;-82
2021/07/18 06:50:58;;;;;;;11.32;8.32;;;;;;;34.72;36.79;96674.13;4988223;28;20181;-82
2021/07/18 06:53:24;;;;;;;13.95;7.65;;;;;;;34.45;37.68;96675.31;4997155;28;20097;-82
2021/07/18 06:55:52;;;;;;;13.77;7.32;;;;;;;35.89;35.78;96670.69;4988486;28;20049;-83
2021/07/18 06:58:18;;;;;;;13.90;6.47;;;;;;;37.05;33.88;96657.81;5011769;28;20084;-83
2021/07/18 07:00:43;;;;;;;16.48;6.90;;;;;;;37.24;33.51;96658.84;4991877;28;20068;-83
2021/07/18 07:03:09;;;;;;;17.40;9.82;;;;;;;37.84;33.50;96666.91;4991950;28;20032;-83
2021/07/18 07:05:35;;;;;;;16.75;7.47;;;;;;;37.83;32.80;96665.25;5007599;28;20115;-83
2021/07/18 07:08:01;;;;;;;11.90;6.70;;;;;;;38.67;31.80;96658.41;5000058;28;20172;-83
2021/07/18 07:10:26;;;;;;;14.45;7.22;;;;;;;38.21;31.48;96657.97;4991727;28;20145;-83
2021/07/18 07:12:52;;;;;;;9.02;6.20;;;;;;;38.73;30.42;96646.03;4983800;28;20038;-83
2021/07/18 07:15:18;;;;;;;13.02;5.95;;;;;;;38.41;31.17;96652.25;5010004;28;20061;-83
2021/07/18 07:17:43;;;;;;;15.05;6.78;;;;;;;36.36;34.04;96658.47;5012599;28;20104;-83
2021/07/18 07:20:11;;;;;;;28.70;7.05;;;;;;;37.06;33.10;96651.97;4993214;28;20060;-82
2021/07/18 07:22:37;;;;;;;21.63;7.13;;;;;;;38.43;31.39;96640.78;4983089;28;20497;-83
2021/07/18 07:25:05;;;;;;;13.25;6.07;;;;;;;38.41;31.91;96648.63;4980265;28;20408;-84
2021/07/18 07:27:31;;;;;;;11.25;6.00;;;;;;;39.81;28.80;96636.88;4980358;28;20486;-84
2021/07/18 07:29:57;;;;;;;13.18;6.53;;;;;;;39.40;30.02;96630.19;4979992;28;20088;-84
2021/07/18 07:32:22;;;;;;;12.50;6.28;;;;;;;39.66;29.75;96641.84;4996308;28;20092;-83
2021/07/18 07:34:48;;;;;;;22.55;5.70;;;;;;;39.95;29.56;96642.56;4996428;28;20500;-82
2021/07/18 07:37:13;;;;;;;7.90;5.65;;;;;;;39.85;29.70;96639.91;4985319;28;20416;-82
2021/07/18 07:39:40;;;;;;;31.35;6.75;;;;;;;40.54;28.49;96636.31;5016021;28;20451;-82
2021/07/18 07:42:06;;;;;;;13.70;6.40;;;;;;;40.10;28.84;96642.34;5016141;28;20408;-81
2021/07/18 07:44:32;;;;;;;13.10;5.68;;;;;;;40.39;28.63;96636.56;4983660;28;20029;-81
2021/07/18 07:46:58;;;;;;;17.02;5.70;;;;;;;40.83;27.71;96631.25;5007082;28;20467;-81
2021/07/18 07:49:24;;;;;;;55.50;7.60;;;;;;;41.75;26.77;96636.63;5001198;28;20061;-82
2021/07/18 07:51:49;;;;;;;9.80;5.53;;;;;;;41.35;26.52;96629.13;4979715;28;20037;-82
2021/07/18 07:54:15;;;;;;;13.88;6.57;;;;;;;41.92;26.64;96633.19;4996261;28;20029;-84
2021/07/18 07:56:40;;;;;;;11.00;6.03;;;;;;;40.43;28.13;96643.19;4979766;28;20030;-84
2021/07/18 07:59:06;;;;;;;15.63;5.60;;;;;;;40.63;27.97;96642.88;4979507;28;20037;-84
2021/07/18 08:01:31;;;;;;;16.95;5.72;;;;;;;40.91;27.63;96638.13;4996124;28;20032;-84
2021/07/18 08:03:57;;;;;;;9.77;5.45;;;;;;;40.77;27.35;96631.66;4979637;28;20025;-84
2021/07/18 08:06:23;;;;;;;15.02;5.50;;;;;;;40.73;28.18;96641.84;4979615;28;20029;-83
2021/07/18 08:08:48;;;;;;;17.92;6.05;;;;;;;40.52;27.92;96635.75;4979457;28;20018;-83
2021/07/18 08:11:14;;;;;;;12.50;6.05;;;;;;;40.40;28.69;96639.03;4995797;28;20036;-82
2021/07/18 08:13:40;;;;;;;10.50;6.68;;;;;;;40.60;28.15;96632.25;4979421;28;20481;-83
2021/07/18 08:16:06;;;;;;;14.40;6.35;;;;;;;41.32;27.46;96613.69;4994596;28;20033;-83
2021/07/18 08:18:32;;;;;;;7.68;5.97;;;;;;;41.30;27.64;96626.38;4985904;28;20053;-83
2021/07/18 08:20:57;;;;;;;8.80;5.20;;;;;;;38.46;31.10;96626.19;4990460;28;20413;-83
2021/07/18 08:23:23;;;;;;;16.35;5.97;;;;;;;38.01;31.98;96623.78;5015007;28;20017;-83
2021/07/18 08:25:49;;;;;;;14.07;6.10;;;;;;;38.35;31.65;96616.25;4989531;28;20042;-82
2021/07/18 08:28:14;;;;;;;14.38;6.32;;;;;;;39.20;30.27;96613.63;4979089;28;20029;-83
2021/07/18 08:30:42;;;;;;;12.90;5.68;;;;;;;39.78;29.44;96603.88;4994680;28;20037;-83
2021/07/18 08:33:08;;;;;;;12.75;5.75;;;;;;;40.56;28.71;96600.34;5003839;28;20033;-83
2021/07/18 08:35:33;;;;;;;9.50;5.70;;;;;;;38.66;30.57;96595.25;4995514;28;20125;-82
2021/07/18 08:37:59;;;;;;;10.25;5.35;;;;;;;39.61;29.74;96592.34;4995015;28;20125;-82
2021/07/18 08:40:25;;;;;;;16.23;5.95;;;;;;;37.89;31.89;96599.84;4984335;28;20087;-83
2021/07/18 08:42:51;;;;;;;15.02;5.22;;;;;;;39.44;29.87;96594.88;4998497;28;20127;-82
2021/07/18 08:45:16;;;;;;;10.13;5.28;;;;;;;38.43;31.12;96590.44;5015103;28;20496;-82
2021/07/18 08:47:42;;;;;;;13.23;5.65;;;;;;;40.55;28.69;96595.88;4998157;28;20063;-82
2021/07/18 08:50:09;;;;;;;9.75;4.88;;;;;;;40.63;27.79;96581.16;5014495;28;20421;-83
2021/07/18 08:52:35;;;;;;;14.65;5.35;;;;;;;40.40;27.72;96590.50;4998410;28;20033;-82
2021/07/18 08:55:01;;;;;;;14.65;5.40;;;;;;;38.95;29.82;96587.63;4998277;28;20029;-82
2021/07/18 08:57:27;;;;;;;8.43;6.18;;;;;;;40.71;28.30;96586.03;5014416;28;20055;-82
2021/07/18 08:59:53;;;;;;;10.13;5.85;;;;;;;41.09;27.71;96579.09;4997806;28;20573;-82
2021/07/18 09:02:19;;;;;;;11.50;5.60;;;;;;;40.91;27.59;96577.22;5010420;28;20045;-83
2021/07/18 09:04:44;;;;;;;8.75;5.03;;;;;;;41.18;27.10;96564.31;4986281;28;20052;-82
2021/07/18 09:07:14;;;;;;;8.63;5.18;;;;;;;41.52;26.85;96561.88;5014421;28;20064;-82
2021/07/18 09:09:39;;;;;;;9.50;5.20;;;;;;;41.30;27.19;96562.63;4998515;28;20032;-82
2021/07/18 09:12:07;;;;;;;12.00;4.95;;;;;;;41.81;26.80;96562.31;5003804;28;20033;-82
2021/07/18 09:14:35;;;;;;;9.27;5.45;;;;;;;41.35;27.10;96564.53;4984233;28;20517;-82
2021/07/18 09:17:01;;;;;;;18.08;5.57;;;;;;;42.14;26.45;96563.75;4989455;28;20123;-82
2021/07/18 09:19:32;;;;;;;10.35;5.28;;;;;;;42.40;26.98;96563.06;4992642;28;20489;-83
2021/07/18 09:21:57;;;;;;;9.40;5.18;;;;;;;42.74;25.16;96557.66;4995786;28;20469;-81
2021/07/18 09:24:24;;;;;;;19.17;6.63;;;;;;;43.52;25.40;96555.91;5014121;28;20112;-83
2021/07/18 09:27:08;;;;;;;16.90;7.00;;;;;;;42.15;26.61;96562.56;4997454;28;20398;-83
2021/07/18 09:29:42;;;;;;;7.85;5.03;;;;;;;41.88;26.90;96559.91;5002486;28;20477;-82
2021/07/18 09:32:10;;;;;;;18.77;11.63;;;;;;;42.39;27.61;96551.00;5002348;28;20029;-83
2021/07/18 09:34:56;;;;;;;47.50;7.97;;;;;;;43.32;25.54;96556.53;4994313;28;20037;-83
2021/07/18 09:37:22;;;;;;;25.60;5.88;;;;;;;42.39;26.91;96562.25;4994501;28;20057;-82
2021/07/18 09:39:51;;;;;;;9.88;5.57;;;;;;;41.19;27.47;96549.13;4978670;28;20080;-82
2021/07/18 09:42:28;;;;;;;11.38;5.00;;;;;;;40.33;29.66;96564.88;4995085;28;20026;-82
2021/07/18 09:44:54;;;;;;;15.90;4.75;;;;;;;41.70;27.81;96555.25;5028305;28;20031;-82
2021/07/18 09:47:19;;;;;;;6.63;5.10;;;;;;;42.71;25.64;96552.66;4989367;28;20111;-82
2021/07/18 09:49:45;;;;;;;9.63;4.93;;;;;;;43.07;25.56;96550.50;4994225;28;20036;-82
2021/07/18 09:52:26;;;;;;;11.50;4.90;;;;;;;43.64;25.29;96550.44;4994332;28;20032;-83
2021/07/18 09:54:53;;;;;;;21.83;6.15;;;;;;;43.52;24.98;96545.47;5001717;28;20026;-83
2021/07/18 09:57:40;;;;;;;9.52;4.75;;;;;;;43.84;24.37;96544.16;5013957;28;20056;-83
2021/07/18 10:00:09;;;;;;;18.80;7.60;;;;;;;43.63;24.19;96546.81;4996595;28;20131;-84
2021/07/18 10:02:34;;;;;;;10.57;5.40;;;;;;;42.85;25.53;96547.78;4994216;28;20040;-83
2021/07/18 10:05:00;;;;;;;30.48;13.50;;;;;;;42.32;26.31;96556.25;4994154;28;20033;-82
2021/07/18 10:07:35;;;;;;;7.35;5.25;;;;;;;42.95;25.35;96552.25;5006041;28;20029;-82
2021/07/18 10:10:06;;;;;;;12.25;6.03;;;;;;;43.30;24.75;96556.03;5005392;28;20032;-82
2021/07/18 10:12:33;;;;;;;15.38;5.72;;;;;;;41.61;26.46;96543.94;5005735;28;20026;-83
2021/07/18 10:14:59;;;;;;;19.40;10.93;;;;;;;43.17;25.27;96553.00;5013570;28;20025;-82
2021/07/18 10:17:27;;;;;;;11.85;6.43;;;;;;;43.00;25.05;96554.97;5010157;28;20030;-82
2021/07/18 10:19:56;;;;;;;23.95;10.50;;;;;;;42.18;26.16;96552.69;4995867;28;20050;-83
2021/07/18 10:22:23;;;;;;;34.20;7.88;;;;;;;42.38;26.06;96551.31;4994992;28;20464;-83
2021/07/18 10:24:49;;;;;;;8.57;5.03;;;;;;;41.73;26.92;96551.81;4977527;28;20068;-82
2021/07/18 10:27:19;;;;;;;15.88;4.95;;;;;;;42.62;25.51;96544.19;4993547;28;20056;-82
2021/07/18 10:29:45;;;;;;;68.72;7.07;;;;;;;42.38;26.06;96542.88;4993886;28;20022;-82
2021/07/18 10:32:13;;;;;;;23.08;5.65;;;;;;;42.09;25.98;96546.13;4985608;28;20029;-82
2021/07/18 10:34:38;;;;;;;16.35;7.10;;;;;;;42.22;25.50;96552.88;5007004;28;20026;-83
2021/07/18 10:37:11;;;;;;;19.38;4.68;;;;;;;43.10;24.74;96534.94;4997001;28;20017;-81
2021/07/18 10:39:41;;;;;;;10.23;4.68;;;;;;;43.02;24.65;96542.22;4994834;28;20037;-82
2021/07/18 10:42:14;;;;;;;11.60;4.93;;;;;;;42.57;25.07;96540.66;5023566;28;20030;-83
2021/07/18 10:44:40;;;;;;;23.92;5.40;;;;;;;42.19;26.22;96545.09;5000671;28;20386;-82
2021/07/18 10:47:06;;;;;;;8.45;4.85;;;;;;;42.72;24.68;96540.25;4992386;28;20033;-82
2021/07/18 10:49:55;;;;;;;8.15;4.57;;;;;;;43.50;23.99;96535.72;4996555;28;20018;-83
2021/07/18 10:52:28;;;;;;;13.75;4.45;;;;;;;43.77;23.80;96540.22;5033048;28;20032;-83
2021/07/18 10:54:54;;;;;;;11.52;4.68;;;;;;;44.05;23.17;96535.88;4996788;28;20029;-83
2021/07/18 10:57:21;;;;;;;14.93;5.03;;;;;;;42.30;24.86;96533.22;4982632;28;20036;-83
2021/07/18 10:59:47;;;;;;;11.25;5.10;;;;;;;41.43;26.17;96527.25;5016835;28;20041;-83
2021/07/18 11:02:15;;;;;;;12.43;4.75;;;;;;;42.17;25.51;96539.78;4999933;28;20030;-81
2021/07/18 11:04:49;;;;;;;10.07;4.72;;;;;;;43.14;23.72;96530.31;5000383;28;20489;-83
2021/07/18 11:07:20;;;;;;;12.13;4.85;;;;;;;43.43;23.67;96529.72;4999927;28;20394;-83
2021/07/18 11:09:48;;;;;;;13.02;4.50;;;;;;;44.05;22.73;96524.59;5025949;28;20021;-83
2021/07/18 11:12:29;;;;;;;12.68;4.38;;;;;;;44.11;23.26;96535.38;5016423;28;20032;-82
2021/07/18 11:15:22;;;;;;;8.25;4.70;;;;;;;43.54;23.02;96531.88;5016354;28;20485;-82
2021/07/18 11:18:07;;;;;;;10.60;4.60;;;;;;;44.03;22.73;96533.38;5002479;28;20112;-83
2021/07/18 11:20:36;;;;;;;11.32;4.40;;;;;;;43.98;22.92;96527.91;5008303;28;20523;-82